createdAt,value
2022-08-24T00:00:24.040Z,100945.29
2022-08-24T00:03:34.845Z,100945.29
2022-08-24T00:06:30.456Z,100954.61
2022-08-24T00:09:27.414Z,100953.20
2022-08-24T00:12:22.414Z,100951.89
2022-08-24T00:15:17.657Z,100950.19
2022-08-24T00:18:22.544Z,100945.65
2022-08-24T00:21:16.015Z,100950.44
2022-08-24T00:24:10.140Z,100959.24
2022-08-24T00:27:02.896Z,100955.91
2022-08-24T00:29:57.109Z,100955.54
2022-08-24T00:32:50.709Z,100956.52
2022-08-24T00:35:46.069Z,100952.73
2022-08-24T00:38:42.054Z,100944.75
2022-08-24T00:41:35.918Z,100944.39
2022-08-24T00:44:31.828Z,100949.78
2022-08-24T00:47:34.026Z,100948.02
2022-08-24T00:50:35.720Z,100952.71
2022-08-24T00:53:37.318Z,100949.00
2022-08-24T00:56:48.818Z,100942.57
2022-08-24T00:59:50.497Z,100940.96
2022-08-24T01:02:52.314Z,100945.26
2022-08-24T01:06:25.137Z,100947.59
2022-08-24T01:09:41.717Z,100953.11
2022-08-24T01:12:52.219Z,100960.66
2022-08-24T01:15:59.581Z,100964.25
2022-08-24T01:18:56.260Z,100963.74
2022-08-24T01:21:58.530Z,100962.10
2022-08-24T01:24:53.497Z,100959.59
2022-08-24T01:27:48.217Z,100959.91
2022-08-24T01:30:47.481Z,100958.80
2022-08-24T01:33:42.640Z,100960.04
2022-08-24T01:36:41.765Z,100958.15
2022-08-24T01:39:40.223Z,100957.09
2022-08-24T01:42:36.032Z,100956.90
2022-08-24T01:45:33.819Z,100953.21
2022-08-24T01:48:38.652Z,100953.25
2022-08-24T01:51:33.316Z,100954.04
2022-08-24T01:54:32.021Z,100955.88
2022-08-24T01:57:27.546Z,100960.17
2022-08-24T02:00:22.555Z,100956.11
2022-08-24T02:03:19.041Z,100959.91
2022-08-24T02:06:13.997Z,100960.95
2022-08-24T02:09:09.611Z,100960.45
2022-08-24T02:12:07.225Z,100962.01
2022-08-24T02:15:03.796Z,100967.21
2022-08-24T02:18:00.527Z,100967.16
2022-08-24T02:20:55.349Z,100973.42
2022-08-24T02:23:49.392Z,100974.31
2022-08-24T02:26:46.229Z,100973.44
2022-08-24T02:29:42.154Z,100970.48
2022-08-24T02:32:37.566Z,100975.26
2022-08-24T02:35:32.065Z,100979.46
2022-08-24T02:38:26.155Z,100980.73
2022-08-24T02:41:22.096Z,100981.14
2022-08-24T02:44:21.417Z,100982.16
2022-08-24T02:47:16.122Z,100985.59
2022-08-24T02:50:16.396Z,100983.16
2022-08-24T02:53:11.056Z,100980.36
2022-08-24T02:56:05.533Z,100986.21
2022-08-24T02:59:00.334Z,100986.14
2022-08-24T03:01:59.751Z,100989.95
2022-08-24T03:04:55.649Z,100990.82
2022-08-24T03:07:55.311Z,100988.35
2022-08-24T03:10:48.290Z,100989.92
2022-08-24T03:13:44.042Z,100989.55
2022-08-24T03:16:41.073Z,100993.67
2022-08-24T03:19:35.681Z,100998.62
2022-08-24T03:22:30.378Z,100994.50
2022-08-24T03:25:28.559Z,100995.11
2022-08-24T03:28:24.139Z,100997.92
2022-08-24T03:31:17.122Z,101003.10
2022-08-24T03:34:14.186Z,101007.94
2022-08-24T03:37:07.560Z,101009.05
2022-08-24T03:40:03.122Z,101014.56
2022-08-24T03:43:02.940Z,101010.06
2022-08-24T03:45:56.008Z,101013.16
2022-08-24T03:48:52.887Z,101013.13
2022-08-24T03:51:50.277Z,101018.64
2022-08-24T03:54:53.456Z,101022.76
2022-08-24T03:57:47.518Z,101030.42
2022-08-24T04:00:47.409Z,101031.79
2022-08-24T04:03:45.095Z,101029.11
2022-08-24T04:06:39.152Z,101031.38
2022-08-24T04:09:38.468Z,101032.27
2022-08-24T04:12:33.305Z,101030.91
2022-08-24T04:15:28.830Z,101032.55
2022-08-24T04:18:29.638Z,101037.34
2022-08-24T04:21:30.671Z,101039.83
2022-08-24T04:24:24.459Z,101044.07
2022-08-24T04:27:19.945Z,101043.39
2022-08-24T04:30:21.024Z,101044.20
2022-08-24T04:33:35.607Z,101044.73
2022-08-24T04:36:30.903Z,101048.96
2022-08-24T04:39:30.106Z,101051.16
2022-08-24T04:42:25.813Z,101048.64
2022-08-24T04:45:28.523Z,101057.70
2022-08-24T04:48:26.742Z,101056.47
2022-08-24T04:51:25.962Z,101059.45
2022-08-24T04:54:33.225Z,101060.80
2022-08-24T04:57:50.506Z,101065.41
2022-08-24T05:00:51.563Z,101069.98
2022-08-24T05:04:00.292Z,101071.42
2022-08-24T05:06:58.562Z,101071.30
2022-08-24T05:09:54.906Z,101075.45
2022-08-24T05:12:59.346Z,101077.14
2022-08-24T05:15:53.849Z,101080.56
2022-08-24T05:18:58.020Z,101083.39
2022-08-24T05:21:56.001Z,101083.48
2022-08-24T05:24:52.113Z,101087.32
2022-08-24T05:27:48.268Z,101088.98
2022-08-24T05:30:44.080Z,101095.90
2022-08-24T05:33:42.263Z,101101.64
2022-08-24T05:36:39.480Z,101099.98
2022-08-24T05:39:55.981Z,101104.35
2022-08-24T05:43:01.360Z,101105.64
2022-08-24T05:46:08.369Z,101102.09
2022-08-24T05:49:04.976Z,101098.09
2022-08-24T05:52:03.967Z,101095.73
2022-08-24T05:55:11.605Z,101096.27
2022-08-24T05:58:13.125Z,101098.48
2022-08-24T06:01:19.107Z,101096.99
2022-08-24T06:04:35.318Z,101094.56
2022-08-24T06:07:37.277Z,101094.98
2022-08-24T06:10:37.137Z,101092.45
2022-08-24T06:13:44.313Z,101098.09
2022-08-24T06:16:39.580Z,101100.52
2022-08-24T06:19:35.264Z,101098.52
2022-08-24T06:22:34.136Z,101099.59
2022-08-24T06:26:04.250Z,101101.12
2022-08-24T06:29:09.594Z,101095.80
2022-08-24T06:32:14.190Z,101096.30
2022-08-24T06:35:22.293Z,101096.23
2022-08-24T06:38:19.938Z,101099.84
2022-08-24T06:41:23.342Z,101104.41
2022-08-24T06:44:31.254Z,101101.38
2022-08-24T06:47:33.269Z,101097.20
2022-08-24T06:50:44.358Z,101094.77
2022-08-24T06:53:47.256Z,101095.09
2022-08-24T06:57:00.402Z,101095.34
2022-08-24T07:00:11.341Z,101091.79
2022-08-24T07:03:25.303Z,101088.91
2022-08-24T07:06:32.652Z,101089.56
2022-08-24T07:09:32.793Z,101084.66
2022-08-24T07:12:36.358Z,101087.67
2022-08-24T07:15:43.744Z,101086.98
2022-08-24T07:18:43.238Z,101089.25
2022-08-24T07:21:51.198Z,101091.65
2022-08-24T07:24:49.544Z,101098.28
2022-08-24T07:27:50.323Z,101100.42
2022-08-24T07:30:54.048Z,101094.61
2022-08-24T07:34:01.339Z,101090.75
2022-08-24T07:37:04.821Z,101084.64
2022-08-24T07:40:02.219Z,101082.34
2022-08-24T07:43:12.047Z,101085.82
2022-08-24T07:46:22.285Z,101083.14
2022-08-24T07:49:37.292Z,101086.70
2022-08-24T07:52:45.281Z,101086.86
2022-08-24T07:55:52.375Z,101090.20
2022-08-24T07:59:01.048Z,101099.18
2022-08-24T08:02:11.407Z,101104.63
2022-08-24T08:05:14.350Z,101104.48
2022-08-24T08:08:16.215Z,101108.59
2022-08-24T08:11:14.393Z,101105.05
2022-08-24T08:14:21.369Z,101107.52
2022-08-24T08:17:29.186Z,101110.86
2022-08-24T08:20:38.413Z,101114.82
2022-08-24T08:23:51.234Z,101110.56
2022-08-24T08:26:59.441Z,101108.64
2022-08-24T08:29:59.658Z,101113.05
2022-08-24T08:33:02.021Z,101113.09
2022-08-24T08:36:15.386Z,101113.45
2022-08-24T08:39:32.552Z,101118.89
2022-08-24T08:43:00.365Z,101120.05
2022-08-24T08:46:30.459Z,101119.90
2022-08-24T08:50:10.793Z,101120.52
2022-08-24T08:54:28.429Z,101127.52
2022-08-24T08:57:51.770Z,101119.02
2022-08-24T09:01:02.070Z,101118.83
2022-08-24T09:04:36.751Z,101122.16
2022-08-24T09:07:55.313Z,101131.44
2022-08-24T09:11:07.395Z,101134.33
2022-08-24T09:14:40.443Z,101134.36
2022-08-24T09:17:58.415Z,101136.27
2022-08-24T09:21:17.781Z,101146.40
2022-08-24T09:24:42.345Z,101145.91
2022-08-24T09:28:17.460Z,101144.33
2022-08-24T09:31:54.301Z,101146.56
2022-08-24T09:35:02.826Z,101142.45
2022-08-24T09:38:21.442Z,101135.16
2022-08-24T09:41:58.403Z,101139.98
2022-08-24T09:45:55.500Z,101141.07
2022-08-24T09:49:31.361Z,101140.49
2022-08-24T09:53:23.814Z,101138.15
2022-08-24T09:56:51.444Z,101133.20
2022-08-24T10:00:12.528Z,101129.02
2022-08-24T10:03:42.187Z,101132.90
2022-08-24T10:07:08.450Z,101128.70
2022-08-24T10:10:37.439Z,101130.14
2022-08-24T10:13:56.388Z,101130.70
2022-08-24T10:17:12.345Z,101133.61
2022-08-24T10:20:24.216Z,101131.97
2022-08-24T10:24:21.489Z,101132.17
2022-08-24T10:27:43.370Z,101131.59
2022-08-24T10:31:03.484Z,101128.73
2022-08-24T10:34:26.476Z,101132.34
2022-08-24T10:37:44.547Z,101132.63
2022-08-24T10:41:02.605Z,101130.52
2022-08-24T10:44:37.564Z,101132.39
2022-08-24T10:47:42.290Z,101130.55
2022-08-24T10:51:02.504Z,101128.21
2022-08-24T10:54:13.476Z,101121.13
2022-08-24T10:57:21.717Z,101116.69
2022-08-24T11:00:38.482Z,101121.77
2022-08-24T11:04:06.532Z,101124.73
2022-08-24T11:07:30.482Z,101129.45
2022-08-24T11:10:39.883Z,101135.73
2022-08-24T11:13:38.172Z,101140.66
2022-08-24T11:16:48.504Z,101144.21
2022-08-24T11:19:48.163Z,101141.74
2022-08-24T11:23:07.462Z,101145.90
2022-08-24T11:26:26.472Z,101145.65
2022-08-24T11:29:58.830Z,101145.01
2022-08-24T11:33:12.794Z,101145.00
2022-08-24T11:36:20.971Z,101144.66
2022-08-24T11:39:23.826Z,101148.45
2022-08-24T11:42:35.514Z,101148.84
2022-08-24T11:45:44.352Z,101148.80
2022-08-24T11:48:55.529Z,101148.14
2022-08-24T11:52:14.535Z,101147.14
2022-08-24T11:55:25.809Z,101151.39
2022-08-24T11:58:54.377Z,101147.02
2022-08-24T12:02:10.615Z,101143.21
2022-08-24T12:05:20.410Z,101149.95
2022-08-24T12:08:25.254Z,101147.15
2022-08-24T12:11:46.537Z,101145.86
2022-08-24T12:15:06.519Z,101146.86
2022-08-24T12:18:26.559Z,101147.77
2022-08-24T12:21:37.835Z,101143.39
2022-08-24T12:24:42.601Z,101140.17
2022-08-24T12:27:51.404Z,101145.79
2022-08-24T12:30:56.379Z,101144.10
2022-08-24T12:34:09.803Z,101143.52
2022-08-24T12:37:28.571Z,101139.20
2022-08-24T12:40:42.587Z,101140.59
2022-08-24T12:43:44.660Z,101143.64
2022-08-24T12:46:47.467Z,101143.52
2022-08-24T12:49:56.106Z,101141.79
2022-08-24T12:53:50.440Z,101141.07
2022-08-24T12:57:16.490Z,101135.75
2022-08-24T13:00:32.660Z,101131.91
2022-08-24T13:03:39.591Z,101128.95
2022-08-24T13:06:59.896Z,101125.61
2022-08-24T13:10:20.342Z,101128.91
2022-08-24T13:13:54.873Z,101121.70
2022-08-24T13:17:21.834Z,101119.39
2022-08-24T13:20:29.669Z,101121.20
2022-08-24T13:23:33.740Z,101120.70
2022-08-24T13:26:36.328Z,101124.45
2022-08-24T13:29:47.473Z,101122.02
2022-08-24T13:32:49.071Z,101128.55
2022-08-24T13:36:21.055Z,101127.19
2022-08-24T13:39:45.093Z,101125.11
2022-08-24T13:43:09.565Z,101128.92
2022-08-24T13:46:26.556Z,101124.75
2022-08-24T13:49:50.597Z,101121.90
2022-08-24T13:53:04.626Z,101133.01
2022-08-24T13:56:33.188Z,101132.59
2022-08-24T13:59:58.470Z,101132.63
2022-08-24T14:03:16.517Z,101130.52
2022-08-24T14:06:48.622Z,101128.21
2022-08-24T14:09:57.330Z,101125.45
2022-08-24T14:13:11.631Z,101122.61
2022-08-24T14:16:34.030Z,101121.58
2022-08-24T14:19:51.464Z,101119.84
2022-08-24T14:23:03.557Z,101115.87
2022-08-24T14:27:03.589Z,101112.71
2022-08-24T14:30:45.741Z,101109.03
2022-08-24T14:34:03.533Z,101106.15
2022-08-24T14:37:09.999Z,101103.63
2022-08-24T14:40:27.173Z,101101.74
2022-08-24T14:43:40.673Z,101095.97
2022-08-24T14:46:48.288Z,101092.70
2022-08-24T14:50:12.941Z,101089.98
2022-08-24T14:53:31.641Z,101086.93
2022-08-24T14:56:59.637Z,101085.59
2022-08-24T15:00:15.167Z,101086.67
2022-08-24T15:03:48.831Z,101086.59
2022-08-24T15:06:55.660Z,101086.84
2022-08-24T15:10:01.853Z,101091.27
2022-08-24T15:13:06.765Z,101094.27
2022-08-24T15:16:16.694Z,101097.15
2022-08-24T15:19:30.451Z,101096.95
2022-08-24T15:22:31.029Z,101097.48
2022-08-24T15:25:53.564Z,101097.29
2022-08-24T15:28:59.605Z,101100.87
2022-08-24T15:32:05.518Z,101099.11
2022-08-24T15:35:11.257Z,101103.60
2022-08-24T15:38:31.955Z,101098.19
2022-08-24T15:41:36.620Z,101097.11
2022-08-24T15:44:48.559Z,101095.30
2022-08-24T15:47:52.091Z,101095.91
2022-08-24T15:50:51.802Z,101094.52
2022-08-24T15:53:57.670Z,101093.40
2022-08-24T15:57:02.656Z,101097.64
2022-08-24T16:00:16.522Z,101096.44
2022-08-24T16:03:40.815Z,101097.98
2022-08-24T16:06:52.978Z,101104.79
2022-08-24T16:10:21.538Z,101107.29
2022-08-24T16:13:39.049Z,101112.02
2022-08-24T16:16:49.664Z,101110.56
2022-08-24T16:19:55.991Z,101114.36
2022-08-24T16:23:03.938Z,101116.50
2022-08-24T16:26:24.415Z,101117.02
2022-08-24T16:29:53.897Z,101117.20
2022-08-24T16:33:05.892Z,101115.23
2022-08-24T16:36:12.994Z,101118.27
2022-08-24T16:39:18.690Z,101118.83
2022-08-24T16:42:31.372Z,101120.41
2022-08-24T16:45:39.815Z,101125.16
2022-08-24T16:48:48.732Z,101127.96
2022-08-24T16:52:01.545Z,101132.00
2022-08-24T16:55:14.909Z,101136.79
2022-08-24T16:58:24.704Z,101141.73
2022-08-24T17:01:29.374Z,101143.36
2022-08-24T17:04:39.727Z,101146.65
2022-08-24T17:07:53.656Z,101151.56
2022-08-24T17:10:55.650Z,101156.26
2022-08-24T17:13:57.415Z,101159.77
2022-08-24T17:17:12.854Z,101159.39
2022-08-24T17:20:26.717Z,101164.76
2022-08-24T17:23:35.963Z,101172.59
2022-08-24T17:26:53.764Z,101172.77
2022-08-24T17:30:02.539Z,101173.30
2022-08-24T17:33:10.691Z,101175.69
2022-08-24T17:36:15.430Z,101174.09
2022-08-24T17:39:24.774Z,101175.15
2022-08-24T17:45:46.462Z,101181.10
2022-08-24T17:48:48.920Z,101184.48
2022-08-24T17:51:44.745Z,101186.49
2022-08-24T17:54:49.068Z,101188.08
2022-08-24T17:57:53.092Z,101187.70
2022-08-24T18:00:48.662Z,101189.80
2022-08-24T18:03:55.935Z,101191.27
2022-08-24T18:07:04.282Z,101191.13
2022-08-24T18:10:15.734Z,101191.23
2022-08-24T18:13:33.537Z,101186.70
2022-08-24T18:16:34.864Z,101181.05
2022-08-24T18:19:33.478Z,101179.60
2022-08-24T18:22:35.832Z,101186.14
2022-08-24T18:25:39.459Z,101188.36
2022-08-24T18:28:51.113Z,101187.91
2022-08-24T18:31:59.612Z,101190.34
2022-08-24T18:35:10.534Z,101189.14
2022-08-24T18:38:14.662Z,101191.61
2022-08-24T18:41:21.544Z,101194.55
2022-08-24T18:44:31.546Z,101199.02
2022-08-24T18:47:52.901Z,101207.76
2022-08-24T18:51:04.831Z,101210.11
2022-08-24T18:54:12.609Z,101215.09
2022-08-24T18:57:31.179Z,101213.77
2022-08-24T19:00:40.866Z,101211.02
2022-08-24T19:03:53.609Z,101216.83
2022-08-24T19:06:59.714Z,101221.28
2022-08-24T19:10:01.928Z,101220.13
2022-08-24T19:13:16.856Z,101221.41
2022-08-24T19:16:29.542Z,101221.33
2022-08-24T19:19:38.400Z,101221.40
2022-08-24T19:22:48.253Z,101219.18
2022-08-24T19:25:55.956Z,101218.15
2022-08-24T19:28:58.801Z,101223.35
2022-08-24T19:32:21.749Z,101219.38
2022-08-24T19:35:23.254Z,101217.69
2022-08-24T19:38:27.170Z,101215.01
2022-08-24T19:41:36.608Z,101210.40
2022-08-24T19:45:05.396Z,101213.43
2022-08-24T19:48:15.840Z,101206.30
2022-08-24T19:51:27.379Z,101202.70
2022-08-24T19:54:36.754Z,101202.77
2022-08-24T19:57:46.752Z,101202.09
2022-08-24T20:00:54.689Z,101204.73
2022-08-24T20:03:58.068Z,101208.20
2022-08-24T20:07:07.852Z,101209.02
2022-08-24T20:10:12.781Z,101209.44
2022-08-24T20:13:22.477Z,101213.46
2022-08-24T20:16:29.874Z,101216.90
2022-08-24T20:19:33.864Z,101217.21
2022-08-24T20:22:55.010Z,101227.20
2022-08-24T20:25:58.912Z,101238.08
2022-08-24T20:29:00.670Z,101253.34
2022-08-24T20:32:06.207Z,101262.58
2022-08-24T20:35:29.288Z,101266.54
2022-08-24T20:38:39.680Z,101281.64
2022-08-24T20:41:37.579Z,101312.98
2022-08-24T20:44:41.902Z,101373.27
2022-08-24T20:47:49.709Z,101390.77
2022-08-24T20:50:58.501Z,101395.94
2022-08-24T20:54:04.861Z,101404.69
2022-08-24T20:57:10.397Z,101407.54
2022-08-24T21:00:25.914Z,101403.38
2022-08-24T21:03:28.044Z,101402.56
2022-08-24T21:06:33.723Z,101398.27
2022-08-24T21:09:42.645Z,101403.89
2022-08-24T21:12:48.717Z,101401.29
2022-08-24T21:15:52.934Z,101398.40
2022-08-24T21:18:56.322Z,101389.90
2022-08-24T21:22:09.906Z,101389.52
2022-08-24T21:25:09.582Z,101393.39
2022-08-24T21:28:10.032Z,101395.61
2022-08-24T21:31:15.345Z,101388.23
2022-08-24T21:34:36.569Z,101378.59
2022-08-24T21:37:41.801Z,101372.86
2022-08-24T21:40:42.341Z,101363.92
2022-08-24T21:43:37.449Z,101348.40
2022-08-24T21:46:38.751Z,101322.42
2022-08-24T21:49:45.891Z,101313.71
2022-08-24T21:52:51.169Z,101299.08
2022-08-24T21:55:50.740Z,101288.34
2022-08-24T21:58:45.988Z,101277.50
2022-08-24T22:01:47.254Z,101268.50
2022-08-24T22:04:44.926Z,101270.30
2022-08-24T22:07:40.104Z,101272.80
2022-08-24T22:10:40.876Z,101270.49
2022-08-24T22:13:38.675Z,101260.69
2022-08-24T22:16:40.617Z,101254.48
2022-08-24T22:19:43.157Z,101251.48
2022-08-24T22:22:46.413Z,101250.57
2022-08-24T22:25:52.175Z,101244.89
2022-08-24T22:28:48.000Z,101239.94
2022-08-24T22:31:43.037Z,101239.94
2022-08-24T22:34:37.609Z,101229.66
2022-08-24T22:37:37.533Z,101219.55
2022-08-24T22:40:38.631Z,101207.22
2022-08-24T22:43:48.965Z,101197.62
2022-08-24T22:46:48.994Z,101193.91
2022-08-24T22:49:45.417Z,101190.33
2022-08-24T22:52:45.325Z,101185.46
2022-08-24T22:55:40.420Z,101189.09
2022-08-24T22:58:41.575Z,101193.21
2022-08-24T23:01:38.632Z,101188.64
2022-08-24T23:04:35.830Z,101181.63
2022-08-24T23:07:32.928Z,101172.52
2022-08-24T23:10:32.896Z,101169.38
2022-08-24T23:13:28.879Z,101160.46
2022-08-24T23:16:23.691Z,101156.83
2022-08-24T23:19:41.809Z,101156.80
2022-08-24T23:22:41.943Z,101154.29
2022-08-24T23:25:36.638Z,101143.08
2022-08-24T23:28:32.810Z,101141.35
2022-08-24T23:31:28.274Z,101144.95
2022-08-24T23:34:23.801Z,101152.88
2022-08-24T23:37:20.957Z,101159.77
2022-08-24T23:40:15.841Z,101166.77
2022-08-24T23:43:10.846Z,101170.48
2022-08-24T23:46:05.767Z,101168.96
2022-08-24T23:49:03.312Z,101169.55
2022-08-24T23:52:00.193Z,101170.16
2022-08-24T23:54:54.359Z,101171.01
2022-08-24T23:57:48.220Z,101173.67
